createdAt,value
2018-11-02T00:00:49.995Z,52.89
2018-11-02T00:01:59.919Z,53.08
2018-11-02T00:03:10.251Z,52.98
2018-11-02T00:04:20.472Z,52.98
2018-11-02T00:05:30.324Z,52.8
2018-11-02T00:06:40.610Z,52.8
2018-11-02T00:07:50.240Z,52.8
2018-11-02T00:09:00.442Z,53.08
2018-11-02T00:10:10.133Z,52.89
2018-11-02T00:11:20.335Z,52.98
2018-11-02T00:12:30.283Z,52.7
2018-11-02T00:13:40.282Z,53.08
2018-11-02T00:14:50.210Z,53.08
2018-11-02T00:15:59.871Z,52.98
2018-11-02T00:17:09.500Z,52.8
2018-11-02T00:18:19.432Z,53.17
2018-11-02T00:19:29.080Z,53.55
2018-11-02T00:20:38.990Z,53.87
2018-11-02T00:21:49.172Z,53.55
2018-11-02T00:22:59.373Z,54.22
2018-11-02T00:24:09.055Z,54.03
2018-11-02T00:25:19.247Z,54.03
2018-11-02T00:26:29.604Z,54.03
2018-11-02T00:27:40.065Z,54.22
2018-11-02T00:28:49.697Z,54.32
2018-11-02T00:29:59.345Z,54.13
2018-11-02T00:31:09.548Z,54.13
2018-11-02T00:32:19.766Z,54.69
2018-11-02T00:33:29.693Z,54.98
2018-11-02T00:34:39.882Z,55.08
2018-11-02T00:35:49.792Z,54.89
2018-11-02T00:36:59.434Z,54.98
2018-11-02T00:38:09.082Z,54.89
2018-11-02T00:39:18.235Z,54.98
2018-11-02T00:40:27.873Z,55.08
2018-11-02T00:41:37.823Z,55.55
2018-11-02T00:42:47.767Z,55.65
2018-11-02T00:43:58.164Z,56.12
2018-11-02T00:45:08.468Z,56.22
2018-11-02T00:46:18.723Z,56.12
2018-11-02T00:47:28.629Z,55.46
2018-11-02T00:48:38.899Z,55.55
2018-11-02T00:49:49.637Z,55.27
2018-11-02T00:50:58.797Z,54.6
2018-11-02T00:52:08.709Z,54.79
2018-11-02T00:53:18.820Z,54.79
2018-11-02T00:54:29.028Z,54.79
2018-11-02T00:55:38.942Z,55.17
2018-11-02T00:56:48.632Z,54.89
2018-11-02T00:57:57.976Z,55.17
2018-11-02T00:59:07.327Z,54.89
2018-11-02T01:00:16.955Z,55.27
2018-11-02T01:01:26.596Z,54.89
2018-11-02T01:02:35.954Z,55.29
2018-11-02T01:03:45.865Z,55.08
2018-11-02T01:04:54.939Z,55.65
2018-11-02T01:06:04.002Z,55.77
2018-11-02T01:07:13.638Z,55.68
2018-11-02T01:08:23.547Z,55.55
2018-11-02T01:09:33.465Z,55.55
2018-11-02T01:10:43.381Z,56.05
2018-11-02T01:11:53.360Z,55.96
2018-11-02T01:13:03.247Z,55.55
2018-11-02T01:14:12.918Z,55.87
2018-11-02T01:15:22.798Z,55.87
2018-11-02T01:16:33.197Z,55.77
2018-11-02T01:17:43.390Z,56.63
2018-11-02T01:18:53.601Z,56.05
2018-11-02T01:20:03.231Z,56.34
2018-11-02T01:21:12.589Z,56.63
2018-11-02T01:22:22.496Z,56.82
2018-11-02T01:23:32.143Z,56.53
2018-11-02T01:24:41.802Z,57.01
2018-11-02T01:25:51.440Z,56.92
2018-11-02T01:27:00.790Z,57.1
2018-11-02T01:28:10.144Z,57.77
2018-11-02T01:29:19.783Z,57.87
2018-11-02T01:30:29.717Z,57.87
2018-11-02T01:31:39.368Z,57.96
2018-11-02T01:32:49.012Z,57.96
2018-11-02T01:33:59.207Z,57.96
2018-11-02T01:35:09.193Z,58.53
2018-11-02T01:36:19.849Z,58.44
2018-11-02T01:37:30.414Z,58.72
2018-11-02T01:38:40.548Z,58.81
2018-11-02T01:39:50.467Z,58.72
2018-11-02T01:41:00.646Z,58.72
2018-11-02T01:42:10.269Z,58.72
2018-11-02T01:43:19.905Z,58.72
2018-11-02T01:44:29.816Z,59.1
2018-11-02T01:45:39.727Z,59.2
2018-11-02T01:46:49.354Z,59.29
2018-11-02T01:47:59.272Z,59.77
2018-11-02T01:49:08.960Z,59.77
2018-11-02T01:50:19.149Z,60.15
2018-11-02T01:51:29.065Z,60.15
2018-11-02T01:52:38.708Z,60.63
2018-11-02T01:53:48.950Z,60.82
2018-11-02T01:54:59.141Z,60.91
2018-11-02T01:56:09.070Z,60.44
2018-11-02T01:57:18.982Z,61
2018-11-02T01:58:29.684Z,60.44
2018-11-02T01:59:40.170Z,60.63
2018-11-02T02:00:50.083Z,60.15
2018-11-02T02:02:00.271Z,60.44
2018-11-02T02:03:10.477Z,59.96
2018-11-02T02:04:20.099Z,59.86
2018-11-02T02:05:29.171Z,60.24
2018-11-02T02:06:39.079Z,60.53
2018-11-02T02:07:49.277Z,60.44
2018-11-02T02:08:58.633Z,60.72
2018-11-02T02:10:08.537Z,60.63
2018-11-02T02:11:18.185Z,60.63
2018-11-02T02:12:27.542Z,60.34
2018-11-02T02:13:36.343Z,60.63
2018-11-02T02:14:45.981Z,60.63
2018-11-02T02:15:55.907Z,60.63
2018-11-02T02:17:05.833Z,60.63
2018-11-02T02:18:16.037Z,60.63
2018-11-02T02:19:25.697Z,60.53
2018-11-02T02:20:36.152Z,61
2018-11-02T02:21:46.305Z,60.72
2018-11-02T02:22:56.554Z,60.91
2018-11-02T02:24:06.491Z,60.72
2018-11-02T02:25:16.137Z,60.72
2018-11-02T02:26:25.206Z,60.82
2018-11-02T02:27:35.148Z,61.19
2018-11-02T02:28:45.057Z,60.82
2018-11-02T02:29:54.406Z,60.82
2018-11-02T02:31:04.613Z,60.72
2018-11-02T02:32:14.815Z,60.63
2018-11-02T02:33:25.021Z,60.63
2018-11-02T02:34:34.953Z,60.72
2018-11-02T02:35:44.318Z,60.72
2018-11-02T02:36:53.953Z,60.72
2018-11-02T02:38:03.621Z,60.24
2018-11-02T02:39:13.251Z,60.53
2018-11-02T02:40:23.156Z,60.82
2018-11-02T02:41:33.072Z,60.53
2018-11-02T02:42:43.298Z,60.44
2018-11-02T02:43:53.816Z,60.72
2018-11-02T02:45:03.749Z,61
2018-11-02T02:46:14.177Z,60.91
2018-11-02T02:47:24.176Z,60.53
2018-11-02T02:48:33.817Z,60.53
2018-11-02T02:49:43.453Z,60.82
2018-11-02T02:50:53.086Z,60.72
2018-11-02T02:52:03.052Z,60.72
2018-11-02T02:53:12.986Z,60.63
2018-11-02T02:54:23.185Z,60.53
2018-11-02T02:55:33.362Z,60.82
2018-11-02T02:56:42.719Z,60.24
2018-11-02T02:57:52.698Z,60.53
2018-11-02T02:59:02.324Z,60.34
2018-11-02T03:00:12.237Z,60.66
2018-11-02T03:01:22.160Z,60.15
2018-11-02T03:02:31.797Z,60.34
2018-11-02T03:03:41.719Z,60.27
2018-11-02T03:04:51.930Z,60.27
2018-11-02T03:06:02.127Z,60.66
2018-11-02T03:07:12.425Z,60.94
2018-11-02T03:08:22.516Z,60.94
2018-11-02T03:09:32.490Z,60.66
2018-11-02T03:10:43.011Z,60.27
2018-11-02T03:11:53.383Z,60.27
2018-11-02T03:13:03.315Z,60.66
2018-11-02T03:14:12.696Z,60.27
2018-11-02T03:15:22.334Z,60.66
2018-11-02T03:16:31.735Z,61.04
2018-11-02T03:17:41.368Z,60.94
2018-11-02T03:18:51.492Z,60.66
2018-11-02T03:20:01.205Z,60.75
2018-11-02T03:21:11.472Z,60.27
2018-11-02T03:22:21.373Z,60.75
2018-11-02T03:23:32.107Z,60.37
2018-11-02T03:24:42.316Z,59.89
2018-11-02T03:25:52.549Z,60.27
2018-11-02T03:27:02.460Z,59.89
2018-11-02T03:28:12.142Z,60.18
2018-11-02T03:29:22.386Z,59.67
2018-11-02T03:30:32.299Z,59.39
2018-11-02T03:31:42.451Z,59.42
2018-11-02T03:32:52.394Z,59.51
2018-11-02T03:34:02.595Z,59.51
2018-11-02T03:35:12.248Z,59.7
2018-11-02T03:36:22.166Z,59.42
2018-11-02T03:37:32.373Z,59.42
2018-11-02T03:38:42.052Z,59.61
2018-11-02T03:39:51.677Z,59.8
2018-11-02T03:41:01.587Z,59.7
2018-11-02T03:42:11.516Z,59.7
2018-11-02T03:43:21.448Z,60.27
2018-11-02T03:44:31.353Z,59.61
2018-11-02T03:45:41.272Z,59.61
2018-11-02T03:46:51.184Z,59.8
2018-11-02T03:48:00.816Z,59.7
2018-11-02T03:49:10.164Z,59.89
2018-11-02T03:50:20.348Z,60.18
2018-11-02T03:51:30.022Z,59.8
2018-11-02T03:52:40.009Z,59.8
2018-11-02T03:53:50.533Z,60.18
2018-11-02T03:55:01.358Z,60.37
2018-11-02T03:56:11.333Z,60.27
2018-11-02T03:57:22.302Z,60.27
2018-11-02T03:58:32.235Z,60.37
2018-11-02T03:59:42.130Z,60.08
2018-11-02T04:00:52.140Z,60.56
2018-11-02T04:02:03.081Z,60.56
2018-11-02T04:03:13.039Z,60.75
2018-11-02T04:04:22.949Z,61.13
2018-11-02T04:05:32.592Z,60.66
2018-11-02T04:06:42.224Z,61.22
2018-11-02T04:07:52.150Z,61.61
2018-11-02T04:09:02.407Z,61.42
2018-11-02T04:10:12.040Z,62.65
2018-11-02T04:11:21.973Z,62.94
2018-11-02T04:12:31.882Z,62.94
2018-11-02T04:13:41.831Z,62.65
2018-11-02T04:14:52.392Z,62.88
2018-11-02T04:16:02.667Z,63.42
2018-11-02T04:17:13.223Z,63.73
2018-11-02T04:18:22.850Z,63.32
2018-11-02T04:19:32.815Z,63.54
2018-11-02T04:20:42.808Z,63.42
2018-11-02T04:21:52.734Z,63.8
2018-11-02T04:23:02.937Z,63.6
2018-11-02T04:24:13.136Z,63.73
2018-11-02T04:25:22.565Z,63.99
2018-11-02T04:26:32.558Z,63.8
2018-11-02T04:27:42.464Z,63.6
2018-11-02T04:28:52.100Z,64.08
2018-11-02T04:30:02.390Z,64.28
2018-11-02T04:31:12.182Z,64.08
2018-11-02T04:32:22.100Z,64.18
2018-11-02T04:33:32.326Z,64.18
2018-11-02T04:34:42.235Z,64.08
2018-11-02T04:35:52.150Z,64.47
2018-11-02T04:37:01.800Z,64.28
2018-11-02T04:38:12.142Z,64.47
2018-11-02T04:39:22.517Z,64.18
2018-11-02T04:40:32.441Z,64.18
2018-11-02T04:41:42.685Z,63.99
2018-11-02T04:42:52.315Z,63.99
2018-11-02T04:44:02.224Z,64.18
2018-11-02T04:45:11.574Z,64.18
2018-11-02T04:46:21.481Z,64.28
2018-11-02T04:47:31.407Z,64.28
2018-11-02T04:48:40.761Z,64.28
2018-11-02T04:49:50.393Z,64.37
2018-11-02T04:51:00.749Z,64.28
2018-11-02T04:52:10.838Z,63.99
2018-11-02T04:53:20.754Z,64.08
2018-11-02T04:54:30.666Z,64.08
2018-11-02T04:55:40.573Z,64.18
2018-11-02T04:56:50.196Z,64.08
2018-11-02T04:57:59.898Z,63.99
2018-11-02T04:59:09.277Z,64.47
2018-11-02T05:00:18.914Z,64.69
2018-11-02T05:01:28.750Z,64.37
2018-11-02T05:02:38.589Z,65.03
2018-11-02T05:03:48.594Z,64.94
2018-11-02T05:04:57.945Z,65.03
2018-11-02T05:06:07.899Z,65.03
2018-11-02T05:07:18.165Z,65.51
2018-11-02T05:08:28.081Z,65.36
2018-11-02T05:09:38.445Z,64.94
2018-11-02T05:10:49.085Z,65.23
2018-11-02T05:11:58.431Z,65.42
2018-11-02T05:13:08.678Z,65.23
2018-11-02T05:14:18.873Z,64.75
2018-11-02T05:15:28.794Z,65.55
2018-11-02T05:16:38.437Z,65.36
2018-11-02T05:17:48.061Z,65.23
2018-11-02T05:18:57.750Z,65.45
2018-11-02T05:20:07.090Z,64.94
2018-11-02T05:21:17.612Z,65.45
2018-11-02T05:22:28.355Z,65.55
2018-11-02T05:23:38.250Z,65.55
2018-11-02T05:24:49.200Z,65.36
2018-11-02T05:25:59.416Z,65.23
2018-11-02T05:27:09.329Z,65.32
2018-11-02T05:28:19.249Z,65.23
2018-11-02T05:29:28.877Z,65.61
2018-11-02T05:30:38.505Z,65.51
2018-11-02T05:31:48.699Z,65.23
2018-11-02T05:32:58.611Z,65.51
2018-11-02T05:34:08.248Z,65.42
2018-11-02T05:35:17.611Z,65.23
2018-11-02T05:36:27.523Z,65.8
2018-11-02T05:37:36.876Z,65.42
2018-11-02T05:38:46.502Z,65.7
2018-11-02T05:39:56.422Z,65.32
2018-11-02T05:41:06.328Z,65.51
2018-11-02T05:42:16.243Z,65.23
2018-11-02T05:43:26.164Z,65.64
2018-11-02T05:44:36.375Z,65.61
2018-11-02T05:45:47.085Z,65.45
2018-11-02T05:46:57.158Z,65.7
2018-11-02T05:48:07.928Z,65.83
2018-11-02T05:49:17.847Z,65.89
2018-11-02T05:50:27.490Z,66.11
2018-11-02T05:51:37.148Z,66.21
2018-11-02T05:52:46.510Z,66.5
2018-11-02T05:53:56.592Z,66.4
2018-11-02T05:55:06.998Z,66.5
2018-11-02T05:56:16.656Z,66.88
2018-11-02T05:57:26.601Z,66.4
2018-11-02T05:58:36.512Z,66.69
2018-11-02T05:59:46.454Z,66.88
2018-11-02T06:00:56.379Z,67.16
2018-11-02T06:02:06.566Z,67.07
2018-11-02T06:03:16.546Z,67.55
2018-11-02T06:04:26.472Z,67.83
2018-11-02T06:05:36.520Z,67.83
2018-11-02T06:06:46.452Z,68.88
2018-11-02T06:07:56.816Z,68.88
2018-11-02T06:09:08.165Z,68.78
2018-11-02T06:10:17.990Z,68.59
2018-11-02T06:11:27.353Z,68.5
2018-11-02T06:12:36.986Z,68.12
2018-11-02T06:13:46.630Z,68.5
2018-11-02T06:14:56.610Z,67.83
2018-11-02T06:16:05.963Z,68.12
2018-11-02T06:17:15.935Z,67.83
2018-11-02T06:18:25.866Z,67.74
2018-11-02T06:19:35.815Z,67.93
2018-11-02T06:20:46.000Z,67.93
2018-11-02T06:21:55.629Z,67.74
2018-11-02T06:23:05.537Z,67.64
2018-11-02T06:24:15.906Z,67.26
2018-11-02T06:25:26.585Z,66.78
2018-11-02T06:26:36.252Z,66.59
2018-11-02T06:27:46.451Z,66.11
2018-11-02T06:28:56.093Z,66.4
2018-11-02T06:30:05.164Z,66.11
2018-11-02T06:31:14.847Z,66.11
2018-11-02T06:32:24.548Z,66.02
2018-11-02T06:33:34.592Z,65.64
2018-11-02T06:34:44.530Z,65.64
2018-11-02T06:35:54.435Z,65.45
2018-11-02T06:37:04.064Z,65.36
2018-11-02T06:38:13.992Z,65.36
2018-11-02T06:39:23.626Z,65.55
2018-11-02T06:40:32.992Z,65.55
2018-11-02T06:41:42.618Z,65.55
2018-11-02T06:42:52.819Z,65.16
2018-11-02T06:44:02.740Z,64.97
2018-11-02T06:45:12.725Z,65.55
2018-11-02T06:46:22.798Z,65.45
2018-11-02T06:47:32.453Z,65.36
2018-11-02T06:48:42.646Z,65.45
2018-11-02T06:49:52.283Z,65.36
2018-11-02T06:51:02.809Z,65.55
2018-11-02T06:52:13.651Z,65.45
2018-11-02T06:53:24.063Z,65.73
2018-11-02T06:54:34.640Z,65.73
2018-11-02T06:55:44.569Z,65.64
2018-11-02T06:56:54.512Z,65.36
2018-11-02T06:58:04.433Z,65.55
2018-11-02T06:59:14.189Z,65.55
2018-11-02T07:00:25.194Z,65.55
2018-11-02T07:01:35.425Z,65.26
2018-11-02T07:02:45.089Z,65.36
2018-11-02T07:03:55.023Z,65.55
2018-11-02T07:05:05.246Z,65.55
2018-11-02T07:06:15.170Z,65.83
2018-11-02T07:07:25.881Z,65.36
2018-11-02T07:08:37.461Z,65.55
2018-11-02T07:09:47.598Z,65.64
2018-11-02T07:10:57.225Z,65.36
2018-11-02T07:12:07.141Z,66.11
2018-11-02T07:13:17.626Z,65.92
2018-11-02T07:14:27.942Z,66.11
2018-11-02T07:15:38.114Z,66.02
2018-11-02T07:16:48.019Z,65.92
2018-11-02T07:17:57.947Z,66.21
2018-11-02T07:19:07.585Z,66.11
2018-11-02T07:20:17.206Z,66.11
2018-11-02T07:21:27.113Z,66.5
2018-11-02T07:22:36.746Z,66.11
2018-11-02T07:23:46.435Z,66.4
2018-11-02T07:24:56.849Z,66.59
2018-11-02T07:26:06.695Z,66.4
2018-11-02T07:27:16.632Z,66.59
2018-11-02T07:28:25.978Z,66.59
2018-11-02T07:29:35.931Z,66.63
2018-11-02T07:30:45.565Z,67.39
2018-11-02T07:31:54.920Z,68.15
2018-11-02T07:33:04.575Z,68.05
2018-11-02T07:34:14.810Z,68.15
2018-11-02T07:35:24.663Z,68.05
2018-11-02T07:36:35.108Z,67.96
2018-11-02T07:37:45.322Z,67
2018-11-02T07:38:55.295Z,67.1
2018-11-02T07:40:05.014Z,67.1
2018-11-02T07:41:14.657Z,66.69
2018-11-02T07:42:24.865Z,67.2
2018-11-02T07:43:34.490Z,67.39
2018-11-02T07:44:44.156Z,66.72
2018-11-02T07:45:54.084Z,66.88
2018-11-02T07:47:03.757Z,66.44
2018-11-02T07:48:13.662Z,66.4
2018-11-02T07:49:23.441Z,66.11
2018-11-02T07:50:33.736Z,66.11
2018-11-02T07:51:43.102Z,65.45
2018-11-02T07:52:52.808Z,65.64
2018-11-02T07:54:03.091Z,65.55
2018-11-02T07:55:13.028Z,65.45
2018-11-02T07:56:23.317Z,65.45
2018-11-02T07:57:33.778Z,65.64
2018-11-02T07:58:44.660Z,65.36
2018-11-02T07:59:54.587Z,65.83
2018-11-02T08:01:04.228Z,65.26
2018-11-02T08:02:14.452Z,65.83
2018-11-02T08:03:24.687Z,65.45
2018-11-02T08:04:34.636Z,66.11
2018-11-02T08:05:44.296Z,65.64
2018-11-02T08:06:53.964Z,65.92
2018-11-02T08:08:03.619Z,66.69
2018-11-02T08:09:13.561Z,66.59
2018-11-02T08:10:23.748Z,66.59
2018-11-02T08:11:33.987Z,66.21
2018-11-02T08:12:44.612Z,66.69
2018-11-02T08:13:54.508Z,66.69
2018-11-02T08:15:04.458Z,66.78
2018-11-02T08:16:14.638Z,67.07
2018-11-02T08:17:24.270Z,67.16
2018-11-02T08:18:35.164Z,66.97
2018-11-02T08:19:45.059Z,66.78
2018-11-02T08:20:54.949Z,66.97
2018-11-02T08:22:04.562Z,67.93
2018-11-02T08:23:13.911Z,68.5
2018-11-02T08:24:23.545Z,68.3
2018-11-02T08:25:33.365Z,68.3
2018-11-02T08:26:43.038Z,70.21
2018-11-02T08:27:52.925Z,69.93
2018-11-02T08:29:02.283Z,69.93
2018-11-02T08:30:11.917Z,71.93
2018-11-02T08:31:21.261Z,71.64
2018-11-02T08:32:31.437Z,71.93
2018-11-02T08:33:41.601Z,71.83
2018-11-02T08:34:51.489Z,72.02
2018-11-02T08:36:01.387Z,71.83
2018-11-02T08:37:11.284Z,72.72
2018-11-02T08:38:21.454Z,73.01
2018-11-02T08:39:31.075Z,73.01
2018-11-02T08:40:40.960Z,73.77
2018-11-02T08:41:50.845Z,74.21
2018-11-02T08:43:00.731Z,73.93
2018-11-02T08:44:10.409Z,74.21
2018-11-02T08:45:20.018Z,74.69
2018-11-02T08:46:29.600Z,74.12
2018-11-02T08:47:39.380Z,75.07
2018-11-02T08:48:49.556Z,75.45
2018-11-02T08:49:59.213Z,75.16
2018-11-02T08:51:09.385Z,75.26
2018-11-02T08:52:19.216Z,75.45
2018-11-02T08:53:29.700Z,75.36
2018-11-02T08:54:39.319Z,75.45
2018-11-02T08:55:49.201Z,75.36
2018-11-02T08:56:59.371Z,75.07
2018-11-02T08:58:09.521Z,75.45
2018-11-02T08:59:20.991Z,75.16
2018-11-02T09:00:31.647Z,75.49
2018-11-02T09:01:41.541Z,74.98
2018-11-02T09:02:51.701Z,75.96
2018-11-02T09:04:01.315Z,75.59
2018-11-02T09:05:11.209Z,75.78
2018-11-02T09:06:20.824Z,75.78
2018-11-02T09:07:30.651Z,75.78
2018-11-02T09:08:40.583Z,75.59
2018-11-02T09:09:50.202Z,76.25
2018-11-02T09:11:00.358Z,75.87
2018-11-02T09:12:10.481Z,75.59
2018-11-02T09:13:21.063Z,75.4
2018-11-02T09:14:30.677Z,76.64
2018-11-02T09:15:40.562Z,76.44
2018-11-02T09:16:50.178Z,77.4
2018-11-02T09:17:59.788Z,77.4
2018-11-02T09:19:09.767Z,76.73
2018-11-02T09:20:19.839Z,77.4
2018-11-02T09:21:30.949Z,77.49
2018-11-02T09:22:40.849Z,77.87
2018-11-02T09:23:50.737Z,77.78
2018-11-02T09:25:00.690Z,77.78
2018-11-02T09:26:10.552Z,77.78
2018-11-02T09:27:20.530Z,78.16
2018-11-02T09:28:29.966Z,78.35
2018-11-02T09:29:39.588Z,78.16
2018-11-02T09:30:49.479Z,78.16
2018-11-02T09:31:59.644Z,77.87
2018-11-02T09:33:08.716Z,78.16
2018-11-02T09:34:18.340Z,78.16
2018-11-02T09:35:29.119Z,78.25
2018-11-02T09:36:38.759Z,78.54
2018-11-02T09:37:48.411Z,78.06
2018-11-02T09:38:58.061Z,78.35
2018-11-02T09:40:07.773Z,78.16
2018-11-02T09:41:17.893Z,78.73
2018-11-02T09:42:27.611Z,78.44
2018-11-02T09:43:38.065Z,78.73
2018-11-02T09:44:47.703Z,78.73
2018-11-02T09:45:57.940Z,79.11
2018-11-02T09:47:07.599Z,78.83
2018-11-02T09:48:17.554Z,79.02
2018-11-02T09:49:27.261Z,79.35
2018-11-02T09:50:36.914Z,80.01
2018-11-02T09:51:47.245Z,80.16
2018-11-02T09:52:57.965Z,80.54
2018-11-02T09:54:07.325Z,80.3
2018-11-02T09:55:17.538Z,81.02
2018-11-02T09:56:27.488Z,80.35
2018-11-02T09:57:40.634Z,80.54
2018-11-02T09:58:51.066Z,80.83
2018-11-02T10:00:01.288Z,80.49
2018-11-02T10:01:10.934Z,81.06
2018-11-02T10:02:20.864Z,81.54
2018-11-02T10:03:30.527Z,81.54
2018-11-02T10:04:40.796Z,81.63
2018-11-02T10:05:50.743Z,81.35
2018-11-02T10:07:00.959Z,82.01
2018-11-02T10:08:10.614Z,82.78
2018-11-02T10:09:21.289Z,83.64
2018-11-02T10:10:31.437Z,83.73
2018-11-02T10:11:40.519Z,83.73
2018-11-02T10:12:50.178Z,83.73
2018-11-02T10:14:00.409Z,84.01
2018-11-02T10:15:10.069Z,84.01
2018-11-02T10:16:19.713Z,84.4
2018-11-02T10:17:29.942Z,84.11
2018-11-02T10:18:39.301Z,84.3
2018-11-02T10:19:49.503Z,85.25
2018-11-02T10:20:59.730Z,85.06
2018-11-02T10:22:09.379Z,85.45
2018-11-02T10:23:19.025Z,85.25
2018-11-02T10:24:28.670Z,85.93
2018-11-02T10:25:38.881Z,85.45
2018-11-02T10:26:48.535Z,86.02
2018-11-02T10:27:58.656Z,86.49
2018-11-02T10:29:08.482Z,85.83
2018-11-02T10:30:18.155Z,86.3
2018-11-02T10:31:28.101Z,86.59
2018-11-02T10:32:38.339Z,86.69
2018-11-02T10:33:48.305Z,86.4
2018-11-02T10:34:58.579Z,86.21
2018-11-02T10:36:08.889Z,86.49
2018-11-02T10:37:19.531Z,87.16
2018-11-02T10:38:29.529Z,86.4
2018-11-02T10:39:39.731Z,86.49
2018-11-02T10:40:49.331Z,87.54
2018-11-02T10:41:58.997Z,86.98
2018-11-02T10:43:09.148Z,87.93
2018-11-02T10:44:19.187Z,86.69
2018-11-02T10:45:30.284Z,87.26
2018-11-02T10:46:40.318Z,87.45
2018-11-02T10:47:50.532Z,87.64
2018-11-02T10:49:00.739Z,87.83
2018-11-02T10:50:10.759Z,86.69
2018-11-02T10:51:20.920Z,87.35
2018-11-02T10:52:30.983Z,87.45
2018-11-02T10:53:41.195Z,87.64
2018-11-02T10:54:51.428Z,87.74
2018-11-02T10:56:01.173Z,88.12
2018-11-02T10:57:10.250Z,87.83
2018-11-02T10:58:19.633Z,87.83
2018-11-02T10:59:29.842Z,88.59
2018-11-02T11:00:39.432Z,88.31
2018-11-02T11:01:49.879Z,88.12
2018-11-02T11:02:59.796Z,88.59
2018-11-02T11:04:09.754Z,88.59
2018-11-02T11:05:19.833Z,88.5
2018-11-02T11:06:29.738Z,88.12
2018-11-02T11:07:40.410Z,89.07
2018-11-02T11:08:49.493Z,88.59
2018-11-02T11:09:58.856Z,88.4
2018-11-02T11:11:09.112Z,88.59
2018-11-02T11:12:19.418Z,88.78
2018-11-02T11:13:30.767Z,88.88
2018-11-02T11:14:43.105Z,88.59
2018-11-02T11:15:52.768Z,88.59
2018-11-02T11:17:02.711Z,89.17
2018-11-02T11:18:12.356Z,88.88
2018-11-02T11:19:22.602Z,88.98
2018-11-02T11:20:32.828Z,88.98
2018-11-02T11:21:41.968Z,88.69
2018-11-02T11:22:52.187Z,88.88
2018-11-02T11:24:02.416Z,88.5
2018-11-02T11:25:12.060Z,88.73
2018-11-02T11:26:21.745Z,88.54
2018-11-02T11:27:31.721Z,88.73
2018-11-02T11:28:42.373Z,89.78
2018-11-02T11:29:52.785Z,88.73
2018-11-02T11:31:03.151Z,89.31
2018-11-02T11:32:13.362Z,89.21
2018-11-02T11:33:23.410Z,89.69
2018-11-02T11:34:33.409Z,89.12
2018-11-02T11:35:43.079Z,89.88
2018-11-02T11:36:52.825Z,89.4
2018-11-02T11:38:02.831Z,89.02
2018-11-02T11:39:12.555Z,89.88
2018-11-02T11:40:21.636Z,89.97
2018-11-02T11:41:31.296Z,89.4
2018-11-02T11:42:40.935Z,90.26
2018-11-02T11:43:50.013Z,89.78
2018-11-02T11:44:59.950Z,89.97
2018-11-02T11:46:09.620Z,90.36
2018-11-02T11:47:19.605Z,89.59
2018-11-02T11:48:29.952Z,90.36
2018-11-02T11:49:39.874Z,90.45
2018-11-02T11:50:50.130Z,89.88
2018-11-02T11:51:59.212Z,90.12
2018-11-02T11:53:09.421Z,90.41
2018-11-02T11:54:19.931Z,90.59
2018-11-02T11:55:29.967Z,90.22
2018-11-02T11:56:40.446Z,90.98
2018-11-02T11:57:50.395Z,90.79
2018-11-02T11:58:59.473Z,90.5
2018-11-02T12:00:09.694Z,90.79
2018-11-02T12:01:19.928Z,90.31
2018-11-02T12:02:30.110Z,90.79
2018-11-02T12:03:39.791Z,90.59
2018-11-02T12:04:49.805Z,90.55
2018-11-02T12:05:58.597Z,90.12
2018-11-02T12:07:07.955Z,90.45
2018-11-02T12:08:17.612Z,90.73
2018-11-02T12:09:27.850Z,90.83
2018-11-02T12:10:38.245Z,90.79
2018-11-02T12:11:48.478Z,91.64
2018-11-02T12:12:57.849Z,91.55
2018-11-02T12:14:07.791Z,91.31
2018-11-02T12:15:17.741Z,91.5
2018-11-02T12:16:27.667Z,90.93
2018-11-02T12:17:37.344Z,90.79
2018-11-02T12:18:47.651Z,91.69
2018-11-02T12:19:57.825Z,90.45
2018-11-02T12:21:07.498Z,90.36
2018-11-02T12:22:17.451Z,90.55
2018-11-02T12:23:27.898Z,90.45
2018-11-02T12:24:38.376Z,90.55
2018-11-02T12:25:48.328Z,90.17
2018-11-02T12:26:58.277Z,90.73
2018-11-02T12:28:08.060Z,90.36
2018-11-02T12:29:18.412Z,90.17
2018-11-02T12:30:28.058Z,91.02
2018-11-02T12:31:37.490Z,90.55
2018-11-02T12:32:47.414Z,90.55
2018-11-02T12:33:57.351Z,90.64
2018-11-02T12:35:07.296Z,90.93
2018-11-02T12:36:17.239Z,91.12
2018-11-02T12:37:27.179Z,90.64
2018-11-02T12:38:37.107Z,91.02
2018-11-02T12:39:47.432Z,90.17
2018-11-02T12:40:57.583Z,89.88
2018-11-02T12:42:07.833Z,90.55
2018-11-02T12:43:18.255Z,91.02
2018-11-02T12:44:28.835Z,91.5
2018-11-02T12:45:38.774Z,91.64
2018-11-02T12:46:49.014Z,91.36
2018-11-02T12:47:59.165Z,92.02
2018-11-02T12:49:10.490Z,92.12
2018-11-02T12:50:22.242Z,91.74
2018-11-02T12:51:32.795Z,92.21
2018-11-02T12:52:43.007Z,91.74
2018-11-02T12:53:52.371Z,91.55
2018-11-02T12:55:02.591Z,92.02
2018-11-02T12:56:12.252Z,91.93
2018-11-02T12:57:22.328Z,90.78
2018-11-02T12:58:32.227Z,90.4
2018-11-02T12:59:41.624Z,89.73
2018-11-02T13:00:50.993Z,89.92
2018-11-02T13:02:01.208Z,89.83
2018-11-02T13:03:11.139Z,90.31
2018-11-02T13:04:21.223Z,90.5
2018-11-02T13:05:31.175Z,90.31
2018-11-02T13:06:41.121Z,90.5
2018-11-02T13:07:50.537Z,90.4
2018-11-02T13:09:00.495Z,90.69
2018-11-02T13:10:10.420Z,90.69
2018-11-02T13:11:20.370Z,90.4
2018-11-02T13:12:30.036Z,90.4
2018-11-02T13:13:39.414Z,90.02
2018-11-02T13:14:48.791Z,89.16
2018-11-02T13:15:58.554Z,89.25
2018-11-02T13:17:08.912Z,89.25
2018-11-02T13:18:19.304Z,89.06
2018-11-02T13:19:29.285Z,89.64
2018-11-02T13:20:38.950Z,89.25
2018-11-02T13:21:48.695Z,89.92
2018-11-02T13:22:59.322Z,90.31
2018-11-02T13:24:08.969Z,90.11
2018-11-02T13:25:20.123Z,90.97
2018-11-02T13:26:30.963Z,90.97
2018-11-02T13:27:40.414Z,91.45
2018-11-02T13:28:50.625Z,91.07
2018-11-02T13:30:00.013Z,91.74
2018-11-02T13:31:10.457Z,91.55
2018-11-02T13:32:21.144Z,92.12
2018-11-02T13:33:31.097Z,92.12
2018-11-02T13:34:41.317Z,91.74
2018-11-02T13:35:50.961Z,92.26
2018-11-02T13:37:00.658Z,92.74
2018-11-02T13:38:10.645Z,92.65
2018-11-02T13:39:20.622Z,92.65
2018-11-02T13:40:29.990Z,93.22
2018-11-02T13:41:39.924Z,93.07
2018-11-02T13:42:50.002Z,92.97
2018-11-02T13:44:00.412Z,93.74
2018-11-02T13:45:10.371Z,92.97
2018-11-02T13:46:20.383Z,93.26
2018-11-02T13:47:30.810Z,92.31
2018-11-02T13:48:41.208Z,92.31
2018-11-02T13:49:50.861Z,92.79
2018-11-02T13:51:00.834Z,92.5
2018-11-02T13:52:10.512Z,92.5
2018-11-02T13:53:19.591Z,91.93
2018-11-02T13:54:29.878Z,92.5
2018-11-02T13:55:40.207Z,92.12
2018-11-02T13:56:50.424Z,92.02
2018-11-02T13:58:00.632Z,91.26
2018-11-02T13:59:10.326Z,90.97
2018-11-02T14:00:20.535Z,91.36
2018-11-02T14:01:30.771Z,90.88
2018-11-02T14:02:40.436Z,90.59
2018-11-02T14:03:50.656Z,90.5
2018-11-02T14:05:00.029Z,90.31
2018-11-02T14:06:09.784Z,90.4
2018-11-02T14:07:19.445Z,90.11
2018-11-02T14:08:30.203Z,90.4
2018-11-02T14:09:40.713Z,89.97
2018-11-02T14:10:51.362Z,89.78
2018-11-02T14:12:00.782Z,90.25
2018-11-02T14:13:10.437Z,89.11
2018-11-02T14:14:20.088Z,89.83
2018-11-02T14:15:29.748Z,89.64
2018-11-02T14:16:39.116Z,90.78
2018-11-02T14:17:49.069Z,90.5
2018-11-02T14:18:59.331Z,90.4
2018-11-02T14:20:09.271Z,90.02
2018-11-02T14:21:19.523Z,90.21
2018-11-02T14:22:29.445Z,90.21
2018-11-02T14:23:39.096Z,89.83
2018-11-02T14:24:48.748Z,90.26
2018-11-02T14:25:58.679Z,90.97
2018-11-02T14:27:08.919Z,91.16
2018-11-02T14:28:18.343Z,90.69
2018-11-02T14:29:28.166Z,91.12
2018-11-02T14:30:38.981Z,91.21
2018-11-02T14:31:48.916Z,91.41
2018-11-02T14:32:59.525Z,91.88
2018-11-02T14:34:10.461Z,92.17
2018-11-02T14:35:20.408Z,91.88
2018-11-02T14:36:30.351Z,92.26
2018-11-02T14:37:40.000Z,92.46
2018-11-02T14:38:49.942Z,92.93
2018-11-02T14:39:59.884Z,93.41
2018-11-02T14:41:10.462Z,93.12
2018-11-02T14:42:21.068Z,93.12
2018-11-02T14:43:30.720Z,93.6
2018-11-02T14:44:40.953Z,93.22
2018-11-02T14:45:50.038Z,93.31
2018-11-02T14:46:59.968Z,93.88
2018-11-02T14:48:09.626Z,94.27
2018-11-02T14:49:19.593Z,94.36
2018-11-02T14:50:29.535Z,94.27
2018-11-02T14:51:39.532Z,93.51
2018-11-02T14:52:49.471Z,94.07
2018-11-02T14:53:59.128Z,94.07
2018-11-02T14:55:08.798Z,94.17
2018-11-02T14:56:18.456Z,93.98
2018-11-02T14:57:27.535Z,94.17
2018-11-02T14:58:37.395Z,93.74
2018-11-02T14:59:47.557Z,94.41
2018-11-02T15:00:56.779Z,94.41
2018-11-02T15:02:06.144Z,94.22
2018-11-02T15:03:16.396Z,94.12
2018-11-02T15:04:26.073Z,94.41